createdAt,value
2017-06-10T00:00:59.171Z,16.50
2017-06-10T00:03:27.620Z,16.50
2017-06-10T00:05:57.012Z,16.40
2017-06-10T00:08:25.433Z,16.40
2017-06-10T00:10:53.876Z,16.40
2017-06-10T00:13:22.289Z,16.40
2017-06-10T00:15:50.814Z,16.30
2017-06-10T00:18:19.231Z,16.20
2017-06-10T00:20:47.648Z,16.30
2017-06-10T00:23:16.848Z,16.30
2017-06-10T00:25:46.037Z,16.20
2017-06-10T00:28:15.242Z,16.20
2017-06-10T00:30:44.429Z,16.20
2017-06-10T00:33:13.542Z,16.20
2017-06-10T00:35:42.727Z,16.20
2017-06-10T00:38:11.941Z,16.20
2017-06-10T00:40:40.395Z,16.20
2017-06-10T00:43:09.607Z,16.10
2017-06-10T00:45:38.800Z,16.10
2017-06-10T00:48:07.977Z,16.10
2017-06-10T00:50:36.489Z,16.10
2017-06-10T00:53:04.968Z,16.10
2017-06-10T00:55:33.376Z,16.00
2017-06-10T00:58:01.795Z,16.00
2017-06-10T01:00:30.233Z,15.90
2017-06-10T01:02:58.641Z,15.90
2017-06-10T01:05:27.082Z,15.90
2017-06-10T01:07:56.701Z,15.90
2017-06-10T01:10:25.116Z,15.90
2017-06-10T01:12:53.536Z,15.90
2017-06-10T01:15:21.941Z,15.80
2017-06-10T01:17:50.141Z,15.80
2017-06-10T01:20:18.548Z,15.80
2017-06-10T01:22:47.752Z,15.70
2017-06-10T01:25:16.947Z,15.70
2017-06-10T01:27:47.108Z,15.70
2017-06-10T01:30:16.445Z,15.60
2017-06-10T01:32:44.860Z,15.60
2017-06-10T01:35:13.296Z,15.60
2017-06-10T01:37:41.735Z,15.60
2017-06-10T01:40:10.215Z,15.60
2017-06-10T01:42:38.669Z,15.60
2017-06-10T01:45:07.093Z,15.50
2017-06-10T01:47:35.533Z,15.40
2017-06-10T01:50:04.009Z,15.40
2017-06-10T01:52:32.466Z,15.40
2017-06-10T01:55:00.958Z,15.40
2017-06-10T01:57:30.155Z,15.40
2017-06-10T01:59:59.353Z,15.40
2017-06-10T02:02:28.568Z,15.40
2017-06-10T02:04:57.007Z,15.40
2017-06-10T02:07:25.517Z,15.40
2017-06-10T02:09:53.947Z,15.40
2017-06-10T02:12:23.046Z,15.40
2017-06-10T02:14:51.504Z,15.40
2017-06-10T02:17:19.927Z,15.40
2017-06-10T02:19:49.136Z,15.30
2017-06-10T02:22:18.321Z,15.30
2017-06-10T02:24:46.738Z,15.30
2017-06-10T02:27:15.196Z,15.30
2017-06-10T02:29:43.613Z,15.30
2017-06-10T02:32:12.068Z,15.30
2017-06-10T02:34:41.275Z,15.30
2017-06-10T02:37:09.693Z,15.30
2017-06-10T02:39:38.141Z,15.20
2017-06-10T02:42:06.583Z,15.20
2017-06-10T02:44:35.780Z,15.20
2017-06-10T02:47:04.980Z,15.20
2017-06-10T02:49:34.148Z,15.10
2017-06-10T02:52:02.580Z,15.00
2017-06-10T02:54:30.999Z,15.00
2017-06-10T02:56:59.526Z,14.90
2017-06-10T02:59:27.933Z,14.90
2017-06-10T03:01:56.379Z,14.90
2017-06-10T03:04:24.846Z,14.80
2017-06-10T03:06:54.028Z,14.90
2017-06-10T03:09:23.454Z,14.90
2017-06-10T03:11:52.616Z,14.80
2017-06-10T03:14:21.022Z,14.80
2017-06-10T03:16:55.720Z,14.80
2017-06-10T03:19:24.137Z,14.80
2017-06-10T03:21:52.579Z,14.80
2017-06-10T03:24:21.013Z,14.80
2017-06-10T03:26:49.482Z,14.80
2017-06-10T03:29:17.909Z,14.80
2017-06-10T03:31:46.318Z,14.80
2017-06-10T03:34:15.524Z,14.80
2017-06-10T03:36:43.935Z,14.70
2017-06-10T03:39:12.347Z,14.80
2017-06-10T03:41:40.767Z,14.70
2017-06-10T03:44:09.249Z,14.60
2017-06-10T03:46:37.691Z,14.60
2017-06-10T03:49:06.101Z,14.40
2017-06-10T03:51:34.519Z,14.30
2017-06-10T03:54:02.968Z,14.20
2017-06-10T03:56:31.382Z,14.10
2017-06-10T03:58:59.819Z,14.10
2017-06-10T04:01:28.220Z,14.20
2017-06-10T04:03:56.637Z,14.20
2017-06-10T04:06:25.077Z,14.20
2017-06-10T04:08:53.503Z,14.30
2017-06-10T04:11:21.940Z,14.40
2017-06-10T04:13:50.358Z,14.50
2017-06-10T04:16:18.767Z,14.50
2017-06-10T04:18:47.195Z,14.50
2017-06-10T04:21:15.610Z,14.60
2017-06-10T04:23:44.931Z,14.50
2017-06-10T04:26:13.345Z,14.50
2017-06-10T04:28:41.760Z,14.50
2017-06-10T04:31:10.272Z,14.60
2017-06-10T04:33:38.695Z,14.60
2017-06-10T04:36:07.127Z,14.70
2017-06-10T04:38:35.539Z,14.70
2017-06-10T04:41:03.955Z,14.70
2017-06-10T04:43:33.157Z,14.80
2017-06-10T04:46:02.476Z,14.70
2017-06-10T04:48:30.896Z,14.70
2017-06-10T04:50:59.320Z,14.70
2017-06-10T04:53:28.516Z,14.60
2017-06-10T04:55:58.180Z,14.70
2017-06-10T04:58:26.618Z,14.70
2017-06-10T05:00:55.833Z,14.80
2017-06-10T05:03:24.251Z,14.80
2017-06-10T05:05:52.683Z,14.80
2017-06-10T05:08:22.581Z,14.80
2017-06-10T05:10:51.024Z,14.70
2017-06-10T05:13:19.564Z,14.80
2017-06-10T05:15:48.016Z,14.80
2017-06-10T05:18:17.197Z,14.90
2017-06-10T05:20:45.621Z,14.90
2017-06-10T05:23:14.027Z,15.00
2017-06-10T05:25:42.561Z,15.10
2017-06-10T05:28:10.972Z,15.20
2017-06-10T05:30:39.394Z,15.30
2017-06-10T05:33:08.608Z,15.20
2017-06-10T05:35:37.776Z,15.20
2017-06-10T05:38:06.210Z,15.20
2017-06-10T05:40:36.088Z,15.40
2017-06-10T05:43:05.314Z,15.50
2017-06-10T05:45:35.203Z,15.50
2017-06-10T05:48:04.401Z,15.60
2017-06-10T05:50:33.427Z,15.60
2017-06-10T05:53:03.297Z,15.60
2017-06-10T05:55:32.505Z,15.70
2017-06-10T05:58:01.683Z,15.80
2017-06-10T06:00:29.933Z,15.70
2017-06-10T06:02:58.615Z,15.80
2017-06-10T06:05:27.217Z,15.90
2017-06-10T06:07:56.527Z,16.00
2017-06-10T06:10:24.955Z,16.00
2017-06-10T06:12:53.809Z,16.00
2017-06-10T06:15:22.989Z,16.10
2017-06-10T06:17:51.464Z,16.10
2017-06-10T06:20:19.930Z,16.10
2017-06-10T06:22:48.337Z,16.20
2017-06-10T06:25:17.532Z,16.30
2017-06-10T06:27:46.714Z,16.30
2017-06-10T06:30:15.133Z,16.30
2017-06-10T06:32:43.566Z,16.30
2017-06-10T06:35:11.981Z,16.40
2017-06-10T06:37:40.424Z,16.40
2017-06-10T06:40:08.943Z,16.40
2017-06-10T06:42:37.423Z,16.50
2017-06-10T06:45:05.855Z,16.50
2017-06-10T06:47:34.317Z,16.60
2017-06-10T06:50:02.765Z,16.60
2017-06-10T06:52:31.201Z,16.60
2017-06-10T06:54:59.634Z,16.60
2017-06-10T06:57:28.056Z,16.70
2017-06-10T06:59:56.471Z,16.80
2017-06-10T07:02:25.883Z,16.90
2017-06-10T07:04:54.317Z,16.90
2017-06-10T07:07:22.558Z,16.90
2017-06-10T07:09:50.978Z,17.00
2017-06-10T07:12:19.388Z,17.10
2017-06-10T07:14:48.584Z,17.20
2017-06-10T07:17:17.001Z,17.20
2017-06-10T07:19:45.436Z,17.20
2017-06-10T07:22:14.632Z,17.30
2017-06-10T07:24:43.813Z,17.30
2017-06-10T07:27:13.020Z,17.30
2017-06-10T07:29:42.201Z,17.30
2017-06-10T07:32:10.734Z,17.30
2017-06-10T07:34:39.156Z,17.40
2017-06-10T07:37:07.576Z,17.50
2017-06-10T07:39:36.024Z,17.40
2017-06-10T07:42:04.456Z,17.50
2017-06-10T07:44:32.865Z,17.50
2017-06-10T07:47:01.295Z,17.60
2017-06-10T07:49:29.717Z,17.70
2017-06-10T07:51:58.189Z,17.70
2017-06-10T07:54:26.632Z,17.90
2017-06-10T07:56:55.047Z,18.10
2017-06-10T07:59:23.485Z,18.10
2017-06-10T08:01:51.899Z,18.20
2017-06-10T08:04:20.349Z,18.40
2017-06-10T08:06:48.764Z,18.50
2017-06-10T08:09:17.210Z,18.50
2017-06-10T08:11:45.655Z,18.60
2017-06-10T08:14:14.836Z,18.70
2017-06-10T08:16:43.285Z,18.70
2017-06-10T08:19:11.735Z,18.80
2017-06-10T08:21:40.904Z,18.80
2017-06-10T08:24:10.104Z,18.90
2017-06-10T08:26:39.295Z,19.00
2017-06-10T08:29:07.716Z,19.00
2017-06-10T08:31:36.165Z,19.20
2017-06-10T08:34:05.356Z,19.50
2017-06-10T08:36:34.549Z,19.50
2017-06-10T08:39:03.209Z,19.60
2017-06-10T08:41:31.972Z,19.60
2017-06-10T08:44:00.416Z,19.70
2017-06-10T08:46:28.849Z,19.80
2017-06-10T08:48:57.280Z,19.90
2017-06-10T08:51:25.701Z,20.00
2017-06-10T08:53:54.144Z,20.10
2017-06-10T08:56:22.564Z,20.20
2017-06-10T08:58:51.017Z,20.30
2017-06-10T09:01:19.465Z,20.30
2017-06-10T09:03:48.640Z,20.90
2017-06-10T09:06:17.076Z,20.90
2017-06-10T09:08:45.488Z,21.10
2017-06-10T09:11:13.896Z,21.20
2017-06-10T09:13:43.631Z,21.50
2017-06-10T09:16:12.063Z,21.50
2017-06-10T09:18:40.499Z,21.90
2017-06-10T09:21:08.963Z,22.00
2017-06-10T09:23:37.365Z,22.00
2017-06-10T09:26:05.804Z,22.20
2017-06-10T09:28:34.991Z,22.60
2017-06-10T09:31:04.200Z,22.80
2017-06-10T09:33:33.380Z,22.70
2017-06-10T09:36:02.565Z,22.80
2017-06-10T09:38:32.062Z,23.00
2017-06-10T09:41:00.482Z,23.00
2017-06-10T09:43:28.927Z,23.20
2017-06-10T09:45:57.325Z,23.20
2017-06-10T09:48:26.516Z,23.30
2017-06-10T09:50:55.712Z,23.00
2017-06-10T09:53:24.894Z,23.10
2017-06-10T09:55:53.363Z,23.10
2017-06-10T09:58:21.781Z,23.20
2017-06-10T10:00:50.968Z,23.60
2017-06-10T10:03:20.186Z,23.90
2017-06-10T10:05:48.601Z,23.80
2017-06-10T10:08:17.032Z,24.10
2017-06-10T10:10:46.208Z,23.90
2017-06-10T10:13:14.626Z,23.90
2017-06-10T10:15:43.051Z,23.80
2017-06-10T10:18:11.477Z,23.70
2017-06-10T10:20:39.911Z,23.60
2017-06-10T10:23:08.333Z,23.70
2017-06-10T10:25:36.744Z,23.70
2017-06-10T10:28:05.295Z,23.70
2017-06-10T10:30:33.708Z,24.00
2017-06-10T10:33:02.135Z,24.20
2017-06-10T10:35:31.330Z,24.30
2017-06-10T10:38:00.505Z,24.30
2017-06-10T10:40:28.939Z,24.30
2017-06-10T10:42:57.356Z,24.50
2017-06-10T10:45:25.798Z,24.60
2017-06-10T10:47:55.650Z,24.70
2017-06-10T10:50:24.060Z,24.70
2017-06-10T10:52:52.746Z,24.70
2017-06-10T10:55:21.225Z,24.70
2017-06-10T10:57:50.725Z,24.50
2017-06-10T11:00:19.903Z,24.50
2017-06-10T11:02:48.329Z,24.50
2017-06-10T11:05:16.766Z,24.50
2017-06-10T11:07:45.176Z,24.50
2017-06-10T11:10:13.620Z,24.50
2017-06-10T11:12:42.039Z,24.50
2017-06-10T11:15:10.465Z,24.60
2017-06-10T11:17:38.925Z,24.40
2017-06-10T11:20:07.336Z,24.30
2017-06-10T11:22:35.848Z,24.30
2017-06-10T11:25:04.256Z,24.20
2017-06-10T11:27:32.678Z,24.10
2017-06-10T11:30:01.097Z,24.10
2017-06-10T11:32:29.515Z,24.20
2017-06-10T11:34:58.041Z,24.20
2017-06-10T11:37:26.448Z,24.20
2017-06-10T11:39:54.880Z,24.20
2017-06-10T11:42:24.077Z,24.20
2017-06-10T11:44:52.492Z,24.20
2017-06-10T11:47:20.943Z,24.20
2017-06-10T11:49:50.156Z,24.30
2017-06-10T11:52:18.573Z,24.30
2017-06-10T11:54:47.004Z,24.40
2017-06-10T11:57:15.067Z,24.40
2017-06-10T11:59:44.264Z,24.40
2017-06-10T12:02:13.452Z,24.40
2017-06-10T12:04:41.944Z,24.40
2017-06-10T12:07:11.151Z,24.40
2017-06-10T12:09:40.244Z,24.40
2017-06-10T12:12:09.038Z,24.50
2017-06-10T12:14:37.457Z,24.40
2017-06-10T12:17:05.869Z,24.50
2017-06-10T12:19:35.069Z,24.70
2017-06-10T12:22:04.236Z,24.80
2017-06-10T12:24:32.678Z,24.70
2017-06-10T12:27:01.102Z,24.90
2017-06-10T12:29:29.515Z,25.00
2017-06-10T12:31:57.966Z,25.00
2017-06-10T12:34:26.384Z,25.10
2017-06-10T12:37:00.157Z,25.10
2017-06-10T12:39:29.565Z,25.00
2017-06-10T12:41:58.777Z,25.00
2017-06-10T12:44:27.196Z,25.00
2017-06-10T12:46:55.625Z,25.10
2017-06-10T12:49:24.816Z,25.10
2017-06-10T12:51:54.032Z,25.10
2017-06-10T12:54:22.467Z,25.10
2017-06-10T12:56:50.890Z,25.10
2017-06-10T12:59:19.330Z,24.90
2017-06-10T13:01:48.444Z,24.90
2017-06-10T13:04:17.440Z,25.00
2017-06-10T13:06:46.636Z,24.90
2017-06-10T13:09:15.816Z,24.90
2017-06-10T13:11:44.237Z,24.90
2017-06-10T13:14:12.686Z,25.00
2017-06-10T13:16:41.214Z,25.10
2017-06-10T13:19:09.635Z,25.20
2017-06-10T13:21:38.045Z,25.20
2017-06-10T13:24:06.460Z,25.20
2017-06-10T13:26:34.896Z,25.20
2017-06-10T13:29:04.074Z,25.20
2017-06-10T13:31:32.490Z,25.20
2017-06-10T13:34:00.908Z,25.20
2017-06-10T13:36:29.323Z,25.10
2017-06-10T13:38:58.537Z,25.00
2017-06-10T13:41:27.870Z,25.00
2017-06-10T13:43:56.553Z,25.10
2017-06-10T13:46:24.963Z,25.20
2017-06-10T13:48:53.386Z,25.30
2017-06-10T13:51:21.792Z,25.30
2017-06-10T13:53:50.219Z,25.40
2017-06-10T13:56:19.419Z,25.40
2017-06-10T13:58:47.857Z,25.40
2017-06-10T14:01:16.277Z,25.40
2017-06-10T14:03:44.736Z,25.50
2017-06-10T14:06:13.173Z,25.50
2017-06-10T14:08:41.580Z,25.40
2017-06-10T14:11:10.006Z,25.30
2017-06-10T14:13:38.437Z,25.30
2017-06-10T14:16:06.866Z,25.50
2017-06-10T14:18:35.297Z,25.60
2017-06-10T14:21:03.700Z,25.60
2017-06-10T14:23:32.882Z,25.20
2017-06-10T14:26:01.322Z,25.20
2017-06-10T14:28:29.732Z,25.10
2017-06-10T14:30:58.178Z,25.10
2017-06-10T14:33:26.639Z,25.30
2017-06-10T14:35:55.068Z,25.30
2017-06-10T14:38:23.500Z,25.30
2017-06-10T14:40:51.932Z,25.30
2017-06-10T14:43:20.356Z,25.20
2017-06-10T14:45:49.802Z,25.30
2017-06-10T14:48:18.267Z,25.30
2017-06-10T14:50:46.669Z,25.30
2017-06-10T14:53:15.078Z,25.30
2017-06-10T14:55:43.533Z,25.50
2017-06-10T14:58:11.944Z,25.50
2017-06-10T15:00:40.024Z,25.40
2017-06-10T15:03:08.453Z,25.30
2017-06-10T15:05:36.861Z,25.30
2017-06-10T15:08:05.283Z,25.40
2017-06-10T15:10:33.721Z,25.50
2017-06-10T15:13:02.154Z,25.50
2017-06-10T15:15:30.564Z,25.50
2017-06-10T15:17:59.760Z,25.20
2017-06-10T15:20:28.182Z,25.20
2017-06-10T15:22:56.605Z,25.20
2017-06-10T15:25:25.054Z,25.20
2017-06-10T15:27:53.465Z,25.00
2017-06-10T15:30:21.870Z,24.90
2017-06-10T15:32:50.317Z,25.00
2017-06-10T15:35:19.420Z,25.00
2017-06-10T15:37:47.845Z,25.00
2017-06-10T15:40:17.740Z,25.10
2017-06-10T15:42:46.165Z,25.00
2017-06-10T15:45:14.581Z,24.90
2017-06-10T15:47:43.014Z,24.90
2017-06-10T15:50:11.425Z,24.90
2017-06-10T15:52:39.832Z,24.90
2017-06-10T15:55:08.276Z,24.90
2017-06-10T15:57:36.688Z,25.00
2017-06-10T16:00:05.861Z,24.90
2017-06-10T16:02:34.349Z,24.90
2017-06-10T16:05:02.853Z,24.90
2017-06-10T16:07:31.319Z,24.80
2017-06-10T16:09:59.795Z,24.90
2017-06-10T16:12:28.201Z,25.00
2017-06-10T16:14:56.616Z,25.00
2017-06-10T16:17:25.072Z,25.00
2017-06-10T16:19:53.499Z,25.00
2017-06-10T16:22:21.911Z,25.00
2017-06-10T16:24:50.446Z,25.10
2017-06-10T16:27:18.952Z,25.10
2017-06-10T16:29:47.550Z,25.00
2017-06-10T16:32:15.988Z,25.00
2017-06-10T16:34:44.400Z,25.10
2017-06-10T16:37:13.365Z,25.10
2017-06-10T16:39:41.801Z,25.10
2017-06-10T16:42:10.267Z,25.10
2017-06-10T16:44:38.779Z,25.10
2017-06-10T16:47:07.212Z,25.10
2017-06-10T16:49:35.627Z,25.10
2017-06-10T16:52:04.484Z,25.00
2017-06-10T16:54:34.723Z,25.00
2017-06-10T16:57:03.300Z,25.00
2017-06-10T16:59:31.845Z,25.00
2017-06-10T17:02:00.449Z,24.90
2017-06-10T17:04:28.873Z,25.00
2017-06-10T17:06:57.552Z,25.00
2017-06-10T17:09:26.034Z,24.90
2017-06-10T17:11:54.500Z,24.90
2017-06-10T17:14:22.940Z,24.90
2017-06-10T17:16:52.251Z,24.90
2017-06-10T17:19:20.656Z,24.90
2017-06-10T17:21:49.108Z,24.90
2017-06-10T17:24:17.868Z,24.90
2017-06-10T17:26:47.061Z,24.90
2017-06-10T17:29:15.572Z,24.90
2017-06-10T17:31:44.023Z,24.80
2017-06-10T17:34:12.443Z,24.80
2017-06-10T17:36:40.865Z,24.80
2017-06-10T17:39:09.529Z,24.80
2017-06-10T17:41:37.961Z,24.80
2017-06-10T17:44:06.820Z,24.80
2017-06-10T17:46:36.221Z,24.80
2017-06-10T17:49:04.724Z,24.70
2017-06-10T17:51:34.183Z,24.80
2017-06-10T17:54:03.083Z,24.80
2017-06-10T17:56:31.845Z,24.70
2017-06-10T17:59:00.325Z,24.70
2017-06-10T18:01:28.804Z,24.70
2017-06-10T18:03:57.460Z,24.70
2017-06-10T18:06:26.134Z,24.70
2017-06-10T18:08:55.348Z,24.60
2017-06-10T18:11:23.971Z,24.70
2017-06-10T18:13:52.387Z,24.60
2017-06-10T18:16:21.833Z,24.70
2017-06-10T18:18:50.369Z,24.60
2017-06-10T18:21:19.421Z,24.60
2017-06-10T18:23:48.689Z,24.60
2017-06-10T18:26:17.060Z,24.60
2017-06-10T18:28:45.463Z,24.50
2017-06-10T18:31:13.771Z,24.40
2017-06-10T18:33:42.195Z,24.40
2017-06-10T18:36:10.609Z,24.30
2017-06-10T18:38:40.627Z,24.30
2017-06-10T18:41:09.051Z,24.20
2017-06-10T18:43:37.455Z,24.20
2017-06-10T18:46:05.923Z,24.20
2017-06-10T18:48:34.348Z,24.20
2017-06-10T18:51:05.138Z,24.10
2017-06-10T18:53:33.966Z,24.10
2017-06-10T18:56:02.374Z,24.10
2017-06-10T18:58:30.891Z,24.10
2017-06-10T19:00:59.469Z,24.10
2017-06-10T19:03:27.873Z,24.10
2017-06-10T19:05:56.305Z,24.10
2017-06-10T19:08:25.527Z,24.00
2017-06-10T19:10:53.937Z,24.00
2017-06-10T19:13:22.358Z,24.00
2017-06-10T19:15:51.563Z,23.90
2017-06-10T19:18:20.753Z,23.90
2017-06-10T19:20:49.954Z,23.90
2017-06-10T19:23:19.155Z,23.80
2017-06-10T19:25:48.336Z,23.80
2017-06-10T19:28:17.531Z,23.80
2017-06-10T19:30:45.975Z,23.80
2017-06-10T19:33:14.404Z,23.70
2017-06-10T19:35:43.586Z,23.70
2017-06-10T19:38:12.046Z,23.70
2017-06-10T19:40:40.461Z,23.60
2017-06-10T19:43:08.881Z,23.60
2017-06-10T19:45:37.308Z,23.50
2017-06-10T19:48:06.490Z,23.50
2017-06-10T19:50:34.903Z,23.40
2017-06-10T19:53:03.344Z,23.40
2017-06-10T19:55:31.764Z,23.40
2017-06-10T19:58:00.199Z,23.40
2017-06-10T20:00:28.650Z,23.30
2017-06-10T20:02:57.056Z,23.30
2017-06-10T20:05:25.482Z,23.20
2017-06-10T20:07:53.966Z,23.20
2017-06-10T20:10:22.380Z,23.20
2017-06-10T20:12:50.801Z,23.10
2017-06-10T20:15:19.245Z,23.10
2017-06-10T20:17:47.651Z,23.00
2017-06-10T20:20:16.077Z,23.00
2017-06-10T20:22:44.522Z,22.90
2017-06-10T20:25:13.732Z,22.90
2017-06-10T20:27:42.160Z,22.90
2017-06-10T20:30:10.575Z,22.80
2017-06-10T20:32:39.767Z,22.70
2017-06-10T20:35:08.973Z,22.70
2017-06-10T20:37:37.415Z,22.70
2017-06-10T20:40:05.838Z,22.70
2017-06-10T20:42:34.255Z,22.60
2017-06-10T20:45:02.697Z,22.60
2017-06-10T20:47:31.132Z,22.50
2017-06-10T20:49:59.554Z,22.40
2017-06-10T20:52:27.994Z,22.40
2017-06-10T20:54:56.420Z,22.40
2017-06-10T20:57:24.834Z,22.30
2017-06-10T20:59:53.278Z,22.30
2017-06-10T21:02:21.693Z,22.30
2017-06-10T21:04:50.116Z,22.30
2017-06-10T21:07:19.315Z,22.10
2017-06-10T21:09:47.729Z,22.10
2017-06-10T21:12:16.157Z,22.00
2017-06-10T21:14:45.378Z,22.00
2017-06-10T21:17:14.477Z,21.90
2017-06-10T21:19:42.909Z,22.00
2017-06-10T21:22:11.357Z,21.90
2017-06-10T21:24:39.771Z,21.90
2017-06-10T21:27:08.186Z,21.80
2017-06-10T21:29:36.798Z,21.70
2017-06-10T21:32:05.267Z,21.60
2017-06-10T21:34:33.703Z,21.60
2017-06-10T21:37:02.161Z,21.60
2017-06-10T21:39:30.582Z,21.60
2017-06-10T21:41:59.000Z,21.60
2017-06-10T21:44:27.441Z,21.60
2017-06-10T21:46:55.923Z,21.50
2017-06-10T21:49:24.341Z,21.40
2017-06-10T21:51:52.785Z,21.40
2017-06-10T21:54:21.224Z,21.30
2017-06-10T21:56:49.632Z,21.20
2017-06-10T21:59:18.082Z,21.20
2017-06-10T22:01:46.500Z,21.20
2017-06-10T22:04:14.909Z,21.10
2017-06-10T22:06:43.345Z,21.10
2017-06-10T22:09:11.763Z,21.10
2017-06-10T22:11:40.183Z,21.10
2017-06-10T22:14:08.646Z,21.10
2017-06-10T22:16:37.060Z,21.20
2017-06-10T22:19:06.263Z,21.00
2017-06-10T22:21:35.473Z,20.90
2017-06-10T22:24:03.901Z,20.90
2017-06-10T22:26:32.325Z,20.80
2017-06-10T22:29:00.764Z,20.70
2017-06-10T22:31:29.299Z,20.70
2017-06-10T22:33:57.698Z,20.60
2017-06-10T22:36:26.143Z,20.50
2017-06-10T22:38:54.571Z,20.40
2017-06-10T22:41:23.009Z,20.30
2017-06-10T22:43:51.444Z,20.20
2017-06-10T22:46:19.961Z,20.30
2017-06-10T22:48:48.368Z,20.30
2017-06-10T22:51:16.802Z,20.20
2017-06-10T22:53:45.210Z,20.20
2017-06-10T22:56:13.618Z,20.10
2017-06-10T22:58:42.101Z,20.20
2017-06-10T23:01:10.509Z,20.20
2017-06-10T23:03:38.944Z,20.20
2017-06-10T23:06:07.380Z,20.20
2017-06-10T23:08:35.810Z,20.20
2017-06-10T23:11:04.229Z,20.20
2017-06-10T23:13:32.653Z,20.10
2017-06-10T23:16:01.081Z,20.10
2017-06-10T23:18:29.515Z,20.10
2017-06-10T23:20:57.956Z,20.10
2017-06-10T23:23:27.140Z,20.10
2017-06-10T23:25:56.316Z,20.10
2017-06-10T23:28:24.748Z,20.00
2017-06-10T23:30:53.153Z,20.00
2017-06-10T23:33:21.597Z,20.00
2017-06-10T23:35:50.802Z,20.10
2017-06-10T23:38:19.209Z,20.10
2017-06-10T23:40:47.282Z,20.00
2017-06-10T23:43:15.718Z,20.00
2017-06-10T23:45:44.134Z,19.90
2017-06-10T23:48:12.554Z,19.90
2017-06-10T23:50:41.761Z,19.80
2017-06-10T23:53:10.948Z,19.70
2017-06-10T23:55:40.117Z,19.60
2017-06-10T23:58:08.552Z,19.60
